sensor_id;sensor_type;location;lat;lon;timestamp;P1;durP1;ratioP1;P2;durP2;ratioP2
1026;SDS011;502;48.746;9.214;2022-08-19T00:00:29;15.50;;;13.90;;
1026;SDS011;502;48.746;9.214;2022-08-19T00:02:57;16.27;;;14.57;;
1026;SDS011;502;48.746;9.214;2022-08-19T00:05:23;15.03;;;13.43;;
1026;SDS011;502;48.746;9.214;2022-08-19T00:07:51;13.97;;;12.57;;
1026;SDS011;502;48.746;9.214;2022-08-19T00:10:18;16.60;;;13.60;;
1026;SDS011;502;48.746;9.214;2022-08-19T00:12:46;16.30;;;14.70;;
1026;SDS011;502;48.746;9.214;2022-08-19T00:15:14;16.33;;;14.73;;
1026;SDS011;502;48.746;9.214;2022-08-19T00:17:42;15.03;;;13.53;;
1026;SDS011;502;48.746;9.214;2022-08-19T00:20:10;15.10;;;13.57;;
1026;SDS011;502;48.746;9.214;2022-08-19T00:22:42;14.67;;;13.17;;
1026;SDS011;502;48.746;9.214;2022-08-19T00:25:11;15.97;;;14.37;;
1026;SDS011;502;48.746;9.214;2022-08-19T00:27:38;14.37;;;12.63;;
1026;SDS011;502;48.746;9.214;2022-08-19T00:30:06;15.33;;;13.83;;
1026;SDS011;502;48.746;9.214;2022-08-19T00:32:35;15.40;;;13.60;;
1026;SDS011;502;48.746;9.214;2022-08-19T00:35:02;14.77;;;13.30;;
1026;SDS011;502;48.746;9.214;2022-08-19T00:37:29;14.20;;;12.80;;
1026;SDS011;502;48.746;9.214;2022-08-19T00:39:56;15.30;;;13.83;;
1026;SDS011;502;48.746;9.214;2022-08-19T00:42:24;15.90;;;14.30;;
1026;SDS011;502;48.746;9.214;2022-08-19T00:44:53;16.80;;;14.13;;
1026;SDS011;502;48.746;9.214;2022-08-19T00:47:20;15.63;;;13.37;;
1026;SDS011;502;48.746;9.214;2022-08-19T00:49:47;16.27;;;14.67;;
1026;SDS011;502;48.746;9.214;2022-08-19T00:52:17;16.90;;;15.10;;
1026;SDS011;502;48.746;9.214;2022-08-19T00:54:46;15.83;;;13.97;;
1026;SDS011;502;48.746;9.214;2022-08-19T00:57:14;16.27;;;14.57;;
1026;SDS011;502;48.746;9.214;2022-08-19T00:59:45;16.63;;;15.00;;
1026;SDS011;502;48.746;9.214;2022-08-19T01:02:13;16.67;;;15.07;;
1026;SDS011;502;48.746;9.214;2022-08-19T01:04:40;17.20;;;15.40;;
1026;SDS011;502;48.746;9.214;2022-08-19T01:07:07;16.50;;;14.50;;
1026;SDS011;502;48.746;9.214;2022-08-19T01:09:34;15.87;;;14.27;;
1026;SDS011;502;48.746;9.214;2022-08-19T01:12:01;15.77;;;14.27;;
1026;SDS011;502;48.746;9.214;2022-08-19T01:14:28;16.13;;;14.47;;
1026;SDS011;502;48.746;9.214;2022-08-19T01:16:57;15.57;;;14.07;;
1026;SDS011;502;48.746;9.214;2022-08-19T01:19:26;15.07;;;13.57;;
1026;SDS011;502;48.746;9.214;2022-08-19T01:21:55;16.10;;;14.50;;
1026;SDS011;502;48.746;9.214;2022-08-19T01:24:26;16.27;;;14.63;;
1026;SDS011;502;48.746;9.214;2022-08-19T01:26:52;16.77;;;15.07;;
1026;SDS011;502;48.746;9.214;2022-08-19T01:29:19;15.97;;;14.40;;
1026;SDS011;502;48.746;9.214;2022-08-19T01:31:46;15.97;;;14.10;;
1026;SDS011;502;48.746;9.214;2022-08-19T01:34:14;15.33;;;13.50;;
1026;SDS011;502;48.746;9.214;2022-08-19T01:36:42;15.33;;;13.77;;
1026;SDS011;502;48.746;9.214;2022-08-19T01:39:13;15.97;;;14.37;;
1026;SDS011;502;48.746;9.214;2022-08-19T01:41:43;15.70;;;13.03;;
1026;SDS011;502;48.746;9.214;2022-08-19T01:44:11;14.97;;;13.47;;
1026;SDS011;502;48.746;9.214;2022-08-19T01:46:38;15.73;;;14.17;;
1026;SDS011;502;48.746;9.214;2022-08-19T01:49:06;16.03;;;14.43;;
1026;SDS011;502;48.746;9.214;2022-08-19T01:51:34;15.20;;;13.60;;
1026;SDS011;502;48.746;9.214;2022-08-19T01:54:00;15.90;;;14.30;;
1026;SDS011;502;48.746;9.214;2022-08-19T01:56:27;15.47;;;13.83;;
1026;SDS011;502;48.746;9.214;2022-08-19T01:58:57;15.40;;;13.90;;
1026;SDS011;502;48.746;9.214;2022-08-19T02:01:26;16.70;;;15.00;;
1026;SDS011;502;48.746;9.214;2022-08-19T02:03:57;16.03;;;14.00;;
1026;SDS011;502;48.746;9.214;2022-08-19T02:06:23;15.93;;;14.33;;
1026;SDS011;502;48.746;9.214;2022-08-19T02:08:50;16.13;;;14.40;;
1026;SDS011;502;48.746;9.214;2022-08-19T02:11:18;17.13;;;15.40;;
1026;SDS011;502;48.746;9.214;2022-08-19T02:13:46;17.63;;;15.83;;
1026;SDS011;502;48.746;9.214;2022-08-19T02:16:16;16.10;;;14.50;;
1026;SDS011;502;48.746;9.214;2022-08-19T02:18:43;16.13;;;14.43;;
1026;SDS011;502;48.746;9.214;2022-08-19T02:21:10;15.90;;;14.40;;
1026;SDS011;502;48.746;9.214;2022-08-19T02:23:38;16.40;;;14.77;;
1026;SDS011;502;48.746;9.214;2022-08-19T02:26:04;16.73;;;15.03;;
1026;SDS011;502;48.746;9.214;2022-08-19T02:28:31;16.87;;;15.07;;
1026;SDS011;502;48.746;9.214;2022-08-19T02:30:58;17.97;;;16.27;;
1026;SDS011;502;48.746;9.214;2022-08-19T02:33:27;19.00;;;17.03;;
1026;SDS011;502;48.746;9.214;2022-08-19T02:35:53;18.20;;;16.13;;
1026;SDS011;502;48.746;9.214;2022-08-19T02:38:20;17.33;;;15.53;;
1026;SDS011;502;48.746;9.214;2022-08-19T02:40:53;19.00;;;17.00;;
1026;SDS011;502;48.746;9.214;2022-08-19T02:43:21;21.63;;;16.37;;
1026;SDS011;502;48.746;9.214;2022-08-19T02:45:48;19.20;;;16.07;;
1026;SDS011;502;48.746;9.214;2022-08-19T02:48:16;18.87;;;16.87;;
1026;SDS011;502;48.746;9.214;2022-08-19T02:50:45;19.97;;;17.77;;
1026;SDS011;502;48.746;9.214;2022-08-19T02:53:12;18.50;;;16.53;;
1026;SDS011;502;48.746;9.214;2022-08-19T02:55:43;19.47;;;17.37;;
1026;SDS011;502;48.746;9.214;2022-08-19T02:58:10;19.00;;;16.57;;
1026;SDS011;502;48.746;9.214;2022-08-19T03:00:40;19.60;;;17.57;;
1026;SDS011;502;48.746;9.214;2022-08-19T03:03:08;19.63;;;17.63;;
1026;SDS011;502;48.746;9.214;2022-08-19T03:05:35;19.17;;;17.17;;
1026;SDS011;502;48.746;9.214;2022-08-19T03:08:04;23.40;;;17.80;;
1026;SDS011;502;48.746;9.214;2022-08-19T03:10:31;19.10;;;17.00;;
1026;SDS011;502;48.746;9.214;2022-08-19T03:12:57;19.57;;;17.47;;
1026;SDS011;502;48.746;9.214;2022-08-19T03:15:24;19.30;;;17.13;;
1026;SDS011;502;48.746;9.214;2022-08-19T03:17:51;19.63;;;17.60;;
1026;SDS011;502;48.746;9.214;2022-08-19T03:20:18;21.30;;;19.10;;
1026;SDS011;502;48.746;9.214;2022-08-19T03:22:44;32.03;;;19.10;;
1026;SDS011;502;48.746;9.214;2022-08-19T03:25:13;20.47;;;18.23;;
1026;SDS011;502;48.746;9.214;2022-08-19T03:27:39;21.37;;;19.17;;
1026;SDS011;502;48.746;9.214;2022-08-19T03:30:06;21.40;;;19.20;;
1026;SDS011;502;48.746;9.214;2022-08-19T03:32:34;21.27;;;18.97;;
1026;SDS011;502;48.746;9.214;2022-08-19T03:35:01;19.43;;;17.53;;
1026;SDS011;502;48.746;9.214;2022-08-19T03:37:28;20.97;;;18.53;;
1026;SDS011;502;48.746;9.214;2022-08-19T03:39:54;21.33;;;19.13;;
1026;SDS011;502;48.746;9.214;2022-08-19T03:42:23;21.30;;;18.90;;
1026;SDS011;502;48.746;9.214;2022-08-19T03:44:50;21.97;;;19.67;;
1026;SDS011;502;48.746;9.214;2022-08-19T03:47:17;28.60;;;21.10;;
1026;SDS011;502;48.746;9.214;2022-08-19T03:49:44;23.90;;;19.43;;
1026;SDS011;502;48.746;9.214;2022-08-19T03:52:11;22.37;;;19.53;;
1026;SDS011;502;48.746;9.214;2022-08-19T03:54:38;22.97;;;20.57;;
1026;SDS011;502;48.746;9.214;2022-08-19T03:57:05;22.40;;;20.00;;
1026;SDS011;502;48.746;9.214;2022-08-19T03:59:35;22.37;;;20.13;;
1026;SDS011;502;48.746;9.214;2022-08-19T04:02:08;21.57;;;19.33;;
1026;SDS011;502;48.746;9.214;2022-08-19T04:04:36;23.93;;;21.43;;
1026;SDS011;502;48.746;9.214;2022-08-19T04:07:03;23.83;;;21.33;;
1026;SDS011;502;48.746;9.214;2022-08-19T04:09:30;23.37;;;20.77;;
1026;SDS011;502;48.746;9.214;2022-08-19T04:11:57;23.33;;;19.37;;
1026;SDS011;502;48.746;9.214;2022-08-19T04:14:25;23.30;;;20.57;;
1026;SDS011;502;48.746;9.214;2022-08-19T04:16:56;22.97;;;20.33;;
1026;SDS011;502;48.746;9.214;2022-08-19T04:19:23;23.33;;;20.77;;
1026;SDS011;502;48.746;9.214;2022-08-19T04:21:52;22.50;;;20.00;;
1026;SDS011;502;48.746;9.214;2022-08-19T04:24:20;24.40;;;21.47;;
1026;SDS011;502;48.746;9.214;2022-08-19T04:26:47;25.40;;;22.00;;
1026;SDS011;502;48.746;9.214;2022-08-19T04:29:15;24.47;;;21.43;;
1026;SDS011;502;48.746;9.214;2022-08-19T04:31:43;24.93;;;22.20;;
1026;SDS011;502;48.746;9.214;2022-08-19T04:34:12;24.30;;;21.80;;
1026;SDS011;502;48.746;9.214;2022-08-19T04:36:41;24.53;;;21.90;;
1026;SDS011;502;48.746;9.214;2022-08-19T04:39:12;23.13;;;20.10;;
1026;SDS011;502;48.746;9.214;2022-08-19T04:41:41;23.70;;;21.20;;
1026;SDS011;502;48.746;9.214;2022-08-19T04:44:25;24.80;;;21.83;;
1026;SDS011;502;48.746;9.214;2022-08-19T04:46:55;23.23;;;20.70;;
1026;SDS011;502;48.746;9.214;2022-08-19T04:49:24;23.23;;;20.73;;
1026;SDS011;502;48.746;9.214;2022-08-19T04:51:52;25.00;;;21.63;;
1026;SDS011;502;48.746;9.214;2022-08-19T04:54:20;25.93;;;22.47;;
1026;SDS011;502;48.746;9.214;2022-08-19T04:56:48;22.90;;;20.10;;
1026;SDS011;502;48.746;9.214;2022-08-19T04:59:16;22.20;;;19.90;;
1026;SDS011;502;48.746;9.214;2022-08-19T05:01:43;23.03;;;20.63;;
1026;SDS011;502;48.746;9.214;2022-08-19T05:04:14;23.90;;;21.40;;
1026;SDS011;502;48.746;9.214;2022-08-19T05:06:46;26.70;;;21.60;;
1026;SDS011;502;48.746;9.214;2022-08-19T05:09:13;27.97;;;25.07;;
1026;SDS011;502;48.746;9.214;2022-08-19T05:11:41;24.03;;;21.60;;
1026;SDS011;502;48.746;9.214;2022-08-19T05:14:08;23.90;;;21.40;;
1026;SDS011;502;48.746;9.214;2022-08-19T05:16:37;25.83;;;23.13;;
1026;SDS011;502;48.746;9.214;2022-08-19T05:19:04;24.33;;;21.77;;
1026;SDS011;502;48.746;9.214;2022-08-19T05:21:50;24.20;;;21.60;;
1026;SDS011;502;48.746;9.214;2022-08-19T05:24:34;22.97;;;20.57;;
1026;SDS011;502;48.746;9.214;2022-08-19T05:27:01;25.33;;;21.60;;
1026;SDS011;502;48.746;9.214;2022-08-19T05:29:30;24.37;;;21.77;;
1026;SDS011;502;48.746;9.214;2022-08-19T05:31:59;25.67;;;22.87;;
1026;SDS011;502;48.746;9.214;2022-08-19T05:34:27;22.80;;;20.30;;
1026;SDS011;502;48.746;9.214;2022-08-19T05:36:56;27.90;;;22.00;;
1026;SDS011;502;48.746;9.214;2022-08-19T05:39:24;24.17;;;21.50;;
1026;SDS011;502;48.746;9.214;2022-08-19T05:41:54;22.40;;;20.03;;
1026;SDS011;502;48.746;9.214;2022-08-19T05:44:23;26.43;;;22.40;;
1026;SDS011;502;48.746;9.214;2022-08-19T05:46:51;24.00;;;21.40;;
1026;SDS011;502;48.746;9.214;2022-08-19T05:49:19;24.80;;;22.23;;
1026;SDS011;502;48.746;9.214;2022-08-19T05:51:47;23.77;;;21.23;;
1026;SDS011;502;48.746;9.214;2022-08-19T05:54:16;24.00;;;21.50;;
1026;SDS011;502;48.746;9.214;2022-08-19T05:56:43;24.80;;;22.10;;
1026;SDS011;502;48.746;9.214;2022-08-19T05:59:13;22.07;;;19.83;;
1026;SDS011;502;48.746;9.214;2022-08-19T06:01:41;23.80;;;21.30;;
1026;SDS011;502;48.746;9.214;2022-08-19T06:04:08;24.00;;;20.80;;
1026;SDS011;502;48.746;9.214;2022-08-19T06:06:35;23.00;;;20.70;;
1026;SDS011;502;48.746;9.214;2022-08-19T06:09:03;24.00;;;21.50;;
1026;SDS011;502;48.746;9.214;2022-08-19T06:11:36;23.63;;;21.23;;
1026;SDS011;502;48.746;9.214;2022-08-19T06:14:04;22.20;;;19.87;;
1026;SDS011;502;48.746;9.214;2022-08-19T06:16:33;23.47;;;20.23;;
1026;SDS011;502;48.746;9.214;2022-08-19T06:19:03;23.90;;;21.40;;
1026;SDS011;502;48.746;9.214;2022-08-19T06:21:32;26.17;;;22.30;;
1026;SDS011;502;48.746;9.214;2022-08-19T06:23:59;24.03;;;21.67;;
1026;SDS011;502;48.746;9.214;2022-08-19T06:26:27;24.87;;;22.23;;
1026;SDS011;502;48.746;9.214;2022-08-19T06:28:55;25.07;;;22.47;;
1026;SDS011;502;48.746;9.214;2022-08-19T06:31:22;24.10;;;21.60;;
1026;SDS011;502;48.746;9.214;2022-08-19T06:33:50;25.00;;;22.33;;
1026;SDS011;502;48.746;9.214;2022-08-19T06:36:18;26.00;;;23.33;;
1026;SDS011;502;48.746;9.214;2022-08-19T06:38:46;26.23;;;23.53;;
1026;SDS011;502;48.746;9.214;2022-08-19T06:41:13;23.93;;;21.10;;
1026;SDS011;502;48.746;9.214;2022-08-19T06:43:40;24.80;;;22.17;;
1026;SDS011;502;48.746;9.214;2022-08-19T06:46:13;24.23;;;21.67;;
1026;SDS011;502;48.746;9.214;2022-08-19T06:48:41;24.50;;;21.90;;
1026;SDS011;502;48.746;9.214;2022-08-19T06:51:08;26.07;;;23.23;;
1026;SDS011;502;48.746;9.214;2022-08-19T06:53:34;25.57;;;22.87;;
1026;SDS011;502;48.746;9.214;2022-08-19T06:56:01;24.83;;;22.17;;
1026;SDS011;502;48.746;9.214;2022-08-19T06:58:28;25.63;;;23.03;;
1026;SDS011;502;48.746;9.214;2022-08-19T07:00:58;26.13;;;23.47;;
1026;SDS011;502;48.746;9.214;2022-08-19T07:03:28;25.77;;;23.00;;
1026;SDS011;502;48.746;9.214;2022-08-19T07:05:56;25.03;;;22.37;;
1026;SDS011;502;48.746;9.214;2022-08-19T07:08:24;28.90;;;23.43;;
1026;SDS011;502;48.746;9.214;2022-08-19T07:10:52;27.13;;;23.50;;
1026;SDS011;502;48.746;9.214;2022-08-19T07:13:19;25.37;;;22.77;;
1026;SDS011;502;48.746;9.214;2022-08-19T07:15:47;23.43;;;20.70;;
1026;SDS011;502;48.746;9.214;2022-08-19T07:18:15;24.40;;;21.83;;
1026;SDS011;502;48.746;9.214;2022-08-19T07:20:44;24.27;;;21.67;;
1026;SDS011;502;48.746;9.214;2022-08-19T07:23:11;27.00;;;24.27;;
1026;SDS011;502;48.746;9.214;2022-08-19T07:25:38;24.30;;;21.80;;
1026;SDS011;502;48.746;9.214;2022-08-19T07:28:05;24.10;;;21.60;;
1026;SDS011;502;48.746;9.214;2022-08-19T07:30:35;23.70;;;21.17;;
1026;SDS011;502;48.746;9.214;2022-08-19T07:33:02;24.30;;;21.30;;
1026;SDS011;502;48.746;9.214;2022-08-19T07:35:29;23.90;;;20.90;;
1026;SDS011;502;48.746;9.214;2022-08-19T07:37:58;25.80;;;22.23;;
1026;SDS011;502;48.746;9.214;2022-08-19T07:40:30;25.17;;;21.10;;
1026;SDS011;502;48.746;9.214;2022-08-19T07:42:57;24.93;;;22.33;;
1026;SDS011;502;48.746;9.214;2022-08-19T07:45:24;26.10;;;21.37;;
1026;SDS011;502;48.746;9.214;2022-08-19T07:47:52;25.40;;;22.80;;
1026;SDS011;502;48.746;9.214;2022-08-19T07:50:20;25.50;;;20.87;;
1026;SDS011;502;48.746;9.214;2022-08-19T07:52:47;25.33;;;22.47;;
1026;SDS011;502;48.746;9.214;2022-08-19T07:55:17;25.10;;;21.90;;
1026;SDS011;502;48.746;9.214;2022-08-19T07:57:44;24.60;;;21.50;;
1026;SDS011;502;48.746;9.214;2022-08-19T08:00:11;24.60;;;21.90;;
1026;SDS011;502;48.746;9.214;2022-08-19T08:02:39;25.10;;;22.20;;
1026;SDS011;502;48.746;9.214;2022-08-19T08:05:08;24.77;;;22.07;;
1026;SDS011;502;48.746;9.214;2022-08-19T08:07:57;22.73;;;20.40;;
1026;SDS011;502;48.746;9.214;2022-08-19T08:10:43;22.97;;;20.47;;
1026;SDS011;502;48.746;9.214;2022-08-19T08:13:10;22.43;;;20.13;;
1026;SDS011;502;48.746;9.214;2022-08-19T08:15:37;25.07;;;21.77;;
1026;SDS011;502;48.746;9.214;2022-08-19T08:18:04;24.90;;;21.90;;
1026;SDS011;502;48.746;9.214;2022-08-19T08:20:32;25.07;;;22.47;;
1026;SDS011;502;48.746;9.214;2022-08-19T08:22:59;23.10;;;20.73;;
1026;SDS011;502;48.746;9.214;2022-08-19T08:25:45;27.60;;;22.83;;
1026;SDS011;502;48.746;9.214;2022-08-19T08:28:12;23.73;;;21.23;;
1026;SDS011;502;48.746;9.214;2022-08-19T08:30:39;24.47;;;21.40;;
1026;SDS011;502;48.746;9.214;2022-08-19T08:33:07;24.97;;;22.47;;
1026;SDS011;502;48.746;9.214;2022-08-19T08:35:34;27.10;;;21.80;;
1026;SDS011;502;48.746;9.214;2022-08-19T08:38:01;25.70;;;22.67;;
1026;SDS011;502;48.746;9.214;2022-08-19T08:40:32;25.77;;;22.30;;
1026;SDS011;502;48.746;9.214;2022-08-19T08:43:07;24.20;;;21.53;;
1026;SDS011;502;48.746;9.214;2022-08-19T08:45:38;24.80;;;21.47;;
1026;SDS011;502;48.746;9.214;2022-08-19T08:48:13;26.70;;;23.17;;
1026;SDS011;502;48.746;9.214;2022-08-19T08:50:45;26.20;;;22.93;;
1026;SDS011;502;48.746;9.214;2022-08-19T08:53:16;24.40;;;21.90;;
1026;SDS011;502;48.746;9.214;2022-08-19T08:55:43;26.43;;;21.73;;
1026;SDS011;502;48.746;9.214;2022-08-19T08:58:13;24.37;;;21.77;;
1026;SDS011;502;48.746;9.214;2022-08-19T09:00:44;24.03;;;21.40;;
1026;SDS011;502;48.746;9.214;2022-08-19T09:03:16;29.37;;;22.70;;
1026;SDS011;502;48.746;9.214;2022-08-19T09:05:46;23.17;;;20.57;;
1026;SDS011;502;48.746;9.214;2022-08-19T09:08:17;25.43;;;22.10;;
1026;SDS011;502;48.746;9.214;2022-08-19T09:10:49;28.17;;;23.47;;
1026;SDS011;502;48.746;9.214;2022-08-19T09:13:21;24.67;;;22.27;;
1026;SDS011;502;48.746;9.214;2022-08-19T09:15:54;25.70;;;21.97;;
1026;SDS011;502;48.746;9.214;2022-08-19T09:18:29;24.30;;;21.50;;
1026;SDS011;502;48.746;9.214;2022-08-19T09:21:05;23.87;;;21.40;;
1026;SDS011;502;48.746;9.214;2022-08-19T09:23:33;24.17;;;21.57;;
1026;SDS011;502;48.746;9.214;2022-08-19T09:26:00;26.40;;;22.43;;
1026;SDS011;502;48.746;9.214;2022-08-19T09:28:29;24.13;;;21.50;;
1026;SDS011;502;48.746;9.214;2022-08-19T09:30:56;23.97;;;21.47;;
1026;SDS011;502;48.746;9.214;2022-08-19T09:33:23;23.30;;;20.90;;
1026;SDS011;502;48.746;9.214;2022-08-19T09:35:49;22.97;;;20.67;;
1026;SDS011;502;48.746;9.214;2022-08-19T09:38:16;25.60;;;20.43;;
1026;SDS011;502;48.746;9.214;2022-08-19T09:40:43;22.43;;;20.10;;
1026;SDS011;502;48.746;9.214;2022-08-19T09:43:10;22.00;;;19.53;;
1026;SDS011;502;48.746;9.214;2022-08-19T09:45:38;23.37;;;20.90;;
1026;SDS011;502;48.746;9.214;2022-08-19T09:48:05;23.53;;;21.03;;
1026;SDS011;502;48.746;9.214;2022-08-19T09:50:31;25.27;;;22.03;;
1026;SDS011;502;48.746;9.214;2022-08-19T09:53:03;24.20;;;20.83;;
1026;SDS011;502;48.746;9.214;2022-08-19T09:55:31;24.17;;;21.57;;
1026;SDS011;502;48.746;9.214;2022-08-19T09:57:58;27.63;;;23.20;;
1026;SDS011;502;48.746;9.214;2022-08-19T10:00:26;23.83;;;21.20;;
1026;SDS011;502;48.746;9.214;2022-08-19T10:02:54;22.17;;;19.87;;
1026;SDS011;502;48.746;9.214;2022-08-19T10:05:21;21.90;;;19.70;;
1026;SDS011;502;48.746;9.214;2022-08-19T10:08:05;23.20;;;20.67;;
1026;SDS011;502;48.746;9.214;2022-08-19T10:10:34;27.70;;;22.50;;
1026;SDS011;502;48.746;9.214;2022-08-19T10:13:01;21.80;;;19.60;;
1026;SDS011;502;48.746;9.214;2022-08-19T10:15:29;24.27;;;21.33;;
1026;SDS011;502;48.746;9.214;2022-08-19T10:17:57;22.20;;;19.90;;
1026;SDS011;502;48.746;9.214;2022-08-19T10:20:24;22.70;;;20.37;;
1026;SDS011;502;48.746;9.214;2022-08-19T10:22:51;22.60;;;20.30;;
1026;SDS011;502;48.746;9.214;2022-08-19T10:25:17;23.63;;;19.47;;
1026;SDS011;502;48.746;9.214;2022-08-19T10:27:44;24.70;;;20.13;;
1026;SDS011;502;48.746;9.214;2022-08-19T10:30:11;23.57;;;21.07;;
1026;SDS011;502;48.746;9.214;2022-08-19T10:32:39;23.27;;;19.87;;
1026;SDS011;502;48.746;9.214;2022-08-19T10:35:07;22.30;;;20.10;;
1026;SDS011;502;48.746;9.214;2022-08-19T10:37:34;22.30;;;19.90;;
1026;SDS011;502;48.746;9.214;2022-08-19T10:40:03;22.17;;;19.97;;
1026;SDS011;502;48.746;9.214;2022-08-19T10:42:31;24.00;;;19.50;;
1026;SDS011;502;48.746;9.214;2022-08-19T10:44:58;21.10;;;18.73;;
1026;SDS011;502;48.746;9.214;2022-08-19T10:47:25;21.03;;;18.30;;
1026;SDS011;502;48.746;9.214;2022-08-19T10:49:52;24.03;;;20.83;;
1026;SDS011;502;48.746;9.214;2022-08-19T10:52:38;22.50;;;20.30;;
1026;SDS011;502;48.746;9.214;2022-08-19T10:55:06;21.80;;;19.57;;
1026;SDS011;502;48.746;9.214;2022-08-19T10:57:51;21.70;;;19.50;;
1026;SDS011;502;48.746;9.214;2022-08-19T11:00:18;20.70;;;18.70;;
1026;SDS011;502;48.746;9.214;2022-08-19T11:02:45;21.50;;;19.40;;
1026;SDS011;502;48.746;9.214;2022-08-19T11:05:12;18.53;;;16.73;;
1026;SDS011;502;48.746;9.214;2022-08-19T11:07:41;19.23;;;17.23;;
1026;SDS011;502;48.746;9.214;2022-08-19T11:10:10;20.20;;;17.17;;
1026;SDS011;502;48.746;9.214;2022-08-19T11:12:38;18.70;;;16.80;;
1026;SDS011;502;48.746;9.214;2022-08-19T11:15:06;17.70;;;15.97;;
1026;SDS011;502;48.746;9.214;2022-08-19T11:17:36;18.37;;;16.53;;
1026;SDS011;502;48.746;9.214;2022-08-19T11:20:05;16.70;;;15.10;;
1026;SDS011;502;48.746;9.214;2022-08-19T11:22:33;17.20;;;15.40;;
1026;SDS011;502;48.746;9.214;2022-08-19T11:25:02;16.33;;;14.70;;
1026;SDS011;502;48.746;9.214;2022-08-19T11:27:29;17.63;;;15.50;;
1026;SDS011;502;48.746;9.214;2022-08-19T11:29:56;17.60;;;15.40;;
1026;SDS011;502;48.746;9.214;2022-08-19T11:32:23;17.63;;;15.73;;
1026;SDS011;502;48.746;9.214;2022-08-19T11:34:49;17.30;;;15.50;;
1026;SDS011;502;48.746;9.214;2022-08-19T11:37:16;17.13;;;15.40;;
1026;SDS011;502;48.746;9.214;2022-08-19T11:39:43;17.10;;;15.30;;
1026;SDS011;502;48.746;9.214;2022-08-19T11:42:11;17.33;;;15.57;;
1026;SDS011;502;48.746;9.214;2022-08-19T11:44:55;17.70;;;16.10;;
1026;SDS011;502;48.746;9.214;2022-08-19T11:47:22;17.20;;;15.40;;
1026;SDS011;502;48.746;9.214;2022-08-19T11:49:49;16.07;;;14.37;;
1026;SDS011;502;48.746;9.214;2022-08-19T11:52:16;16.10;;;14.17;;
1026;SDS011;502;48.746;9.214;2022-08-19T11:54:42;17.43;;;15.73;;
1026;SDS011;502;48.746;9.214;2022-08-19T11:57:10;16.40;;;14.90;;
1026;SDS011;502;48.746;9.214;2022-08-19T11:59:39;17.03;;;15.43;;
1026;SDS011;502;48.746;9.214;2022-08-19T12:02:06;16.77;;;15.07;;
1026;SDS011;502;48.746;9.214;2022-08-19T12:04:33;15.97;;;14.27;;
1026;SDS011;502;48.746;9.214;2022-08-19T12:07:01;15.10;;;13.60;;
1026;SDS011;502;48.746;9.214;2022-08-19T12:09:28;15.60;;;14.00;;
1026;SDS011;502;48.746;9.214;2022-08-19T12:11:55;15.30;;;13.90;;
1026;SDS011;502;48.746;9.214;2022-08-19T12:14:23;17.77;;;16.03;;
1026;SDS011;502;48.746;9.214;2022-08-19T12:16:49;17.73;;;16.00;;
1026;SDS011;502;48.746;9.214;2022-08-19T12:19:16;19.90;;;16.47;;
1026;SDS011;502;48.746;9.214;2022-08-19T12:21:43;18.27;;;16.47;;
1026;SDS011;502;48.746;9.214;2022-08-19T12:24:10;17.90;;;16.20;;
1026;SDS011;502;48.746;9.214;2022-08-19T12:26:36;19.50;;;15.60;;
1026;SDS011;502;48.746;9.214;2022-08-19T12:29:03;21.33;;;19.10;;
1026;SDS011;502;48.746;9.214;2022-08-19T12:31:31;23.67;;;21.17;;
1026;SDS011;502;48.746;9.214;2022-08-19T12:33:58;25.90;;;23.20;;
1026;SDS011;502;48.746;9.214;2022-08-19T12:36:27;26.90;;;23.87;;
1026;SDS011;502;48.746;9.214;2022-08-19T12:38:54;30.40;;;24.60;;
1026;SDS011;502;48.746;9.214;2022-08-19T12:41:21;26.20;;;22.93;;
1026;SDS011;502;48.746;9.214;2022-08-19T12:43:48;26.73;;;23.63;;
1026;SDS011;502;48.746;9.214;2022-08-19T12:46:15;26.47;;;23.67;;
1026;SDS011;502;48.746;9.214;2022-08-19T12:48:43;26.00;;;23.30;;
1026;SDS011;502;48.746;9.214;2022-08-19T12:51:12;30.10;;;24.70;;
1026;SDS011;502;48.746;9.214;2022-08-19T12:53:40;27.60;;;24.80;;
1026;SDS011;502;48.746;9.214;2022-08-19T12:56:07;28.63;;;25.70;;
1026;SDS011;502;48.746;9.214;2022-08-19T12:58:35;26.70;;;23.87;;
1026;SDS011;502;48.746;9.214;2022-08-19T13:01:06;27.80;;;24.90;;
1026;SDS011;502;48.746;9.214;2022-08-19T13:03:33;26.80;;;24.00;;
1026;SDS011;502;48.746;9.214;2022-08-19T13:06:01;27.33;;;23.90;;
1026;SDS011;502;48.746;9.214;2022-08-19T13:08:28;28.93;;;25.13;;
1026;SDS011;502;48.746;9.214;2022-08-19T13:10:55;27.23;;;24.43;;
1026;SDS011;502;48.746;9.214;2022-08-19T13:13:22;28.50;;;25.60;;
1026;SDS011;502;48.746;9.214;2022-08-19T13:15:51;29.30;;;26.10;;
1026;SDS011;502;48.746;9.214;2022-08-19T13:18:18;28.17;;;25.33;;
1026;SDS011;502;48.746;9.214;2022-08-19T13:20:45;30.33;;;27.13;;
1026;SDS011;502;48.746;9.214;2022-08-19T13:23:13;30.30;;;27.00;;
1026;SDS011;502;48.746;9.214;2022-08-19T13:25:39;28.30;;;25.40;;
1026;SDS011;502;48.746;9.214;2022-08-19T13:28:06;26.97;;;24.07;;
1026;SDS011;502;48.746;9.214;2022-08-19T13:30:33;28.20;;;24.80;;
1026;SDS011;502;48.746;9.214;2022-08-19T13:33:17;28.93;;;25.93;;
1026;SDS011;502;48.746;9.214;2022-08-19T13:35:46;28.27;;;25.30;;
1026;SDS011;502;48.746;9.214;2022-08-19T13:38:15;29.70;;;26.50;;
1026;SDS011;502;48.746;9.214;2022-08-19T13:40:43;29.33;;;26.23;;
1026;SDS011;502;48.746;9.214;2022-08-19T13:43:11;29.13;;;26.03;;
1026;SDS011;502;48.746;9.214;2022-08-19T13:45:38;29.90;;;26.80;;
1026;SDS011;502;48.746;9.214;2022-08-19T13:48:06;30.13;;;27.03;;
1026;SDS011;502;48.746;9.214;2022-08-19T13:50:34;30.37;;;26.80;;
1026;SDS011;502;48.746;9.214;2022-08-19T13:53:02;29.40;;;26.20;;
1026;SDS011;502;48.746;9.214;2022-08-19T13:55:30;30.43;;;27.10;;
1026;SDS011;502;48.746;9.214;2022-08-19T13:57:57;27.53;;;24.47;;
1026;SDS011;502;48.746;9.214;2022-08-19T14:00:27;29.50;;;26.33;;
1026;SDS011;502;48.746;9.214;2022-08-19T14:02:55;31.80;;;27.97;;
1026;SDS011;502;48.746;9.214;2022-08-19T14:05:23;31.53;;;28.07;;
1026;SDS011;502;48.746;9.214;2022-08-19T14:07:50;33.10;;;29.50;;
1026;SDS011;502;48.746;9.214;2022-08-19T14:10:17;32.87;;;28.43;;
1026;SDS011;502;48.746;9.214;2022-08-19T14:12:45;30.67;;;27.27;;
1026;SDS011;502;48.746;9.214;2022-08-19T14:15:13;30.60;;;27.50;;
1026;SDS011;502;48.746;9.214;2022-08-19T14:17:40;31.10;;;27.73;;
1026;SDS011;502;48.746;9.214;2022-08-19T14:20:08;30.80;;;27.57;;
1026;SDS011;502;48.746;9.214;2022-08-19T14:22:37;32.20;;;27.43;;
1026;SDS011;502;48.746;9.214;2022-08-19T14:25:05;30.30;;;27.00;;
1026;SDS011;502;48.746;9.214;2022-08-19T14:27:33;31.13;;;27.47;;
1026;SDS011;502;48.746;9.214;2022-08-19T14:30:01;32.03;;;28.47;;
1026;SDS011;502;48.746;9.214;2022-08-19T14:32:28;33.33;;;28.20;;
1026;SDS011;502;48.746;9.214;2022-08-19T14:34:55;30.83;;;27.50;;
1026;SDS011;502;48.746;9.214;2022-08-19T14:37:21;32.40;;;26.70;;
1026;SDS011;502;48.746;9.214;2022-08-19T14:39:48;32.33;;;28.13;;
1026;SDS011;502;48.746;9.214;2022-08-19T14:42:15;31.47;;;28.07;;
1026;SDS011;502;48.746;9.214;2022-08-19T14:44:42;29.17;;;26.13;;
1026;SDS011;502;48.746;9.214;2022-08-19T14:47:10;30.67;;;27.47;;
1026;SDS011;502;48.746;9.214;2022-08-19T14:49:37;31.00;;;27.90;;
1026;SDS011;502;48.746;9.214;2022-08-19T14:52:04;28.80;;;25.90;;
1026;SDS011;502;48.746;9.214;2022-08-19T14:54:31;28.17;;;25.27;;
1026;SDS011;502;48.746;9.214;2022-08-19T14:56:58;28.07;;;25.07;;
1026;SDS011;502;48.746;9.214;2022-08-19T14:59:25;29.50;;;25.57;;
1026;SDS011;502;48.746;9.214;2022-08-19T15:01:52;30.30;;;26.57;;
1026;SDS011;502;48.746;9.214;2022-08-19T15:04:20;28.13;;;24.50;;
1026;SDS011;502;48.746;9.214;2022-08-19T15:06:47;28.20;;;25.40;;